createdAt,value
2022-09-16T00:01:00.281Z,22.11
2022-09-16T00:03:28.190Z,22.10
2022-09-16T00:05:58.566Z,22.00
2022-09-16T00:08:25.995Z,22.05
2022-09-16T00:10:53.336Z,21.94
2022-09-16T00:13:20.629Z,21.87
2022-09-16T00:15:51.248Z,21.88
2022-09-16T00:18:20.630Z,21.95
2022-09-16T00:20:50.900Z,22.12
2022-09-16T00:23:19.833Z,22.01
2022-09-16T00:25:55.265Z,21.85
2022-09-16T00:28:23.891Z,21.75
2022-09-16T00:30:51.819Z,21.74
2022-09-16T00:33:20.682Z,21.82
2022-09-16T00:35:48.467Z,21.78
2022-09-16T00:38:16.503Z,21.83
2022-09-16T00:40:49.242Z,21.83
2022-09-16T00:43:19.459Z,21.85
2022-09-16T00:45:55.825Z,21.85
2022-09-16T00:48:26.618Z,21.90
2022-09-16T00:51:06.053Z,21.77
2022-09-16T00:53:43.103Z,21.84
2022-09-16T00:56:14.433Z,21.85
2022-09-16T00:59:12.483Z,21.97
2022-09-16T01:01:43.419Z,21.85
2022-09-16T01:04:19.077Z,21.88
2022-09-16T01:06:46.652Z,21.89
2022-09-16T01:09:14.138Z,21.77
2022-09-16T01:11:41.497Z,21.87
2022-09-16T01:14:27.740Z,21.79
2022-09-16T01:17:06.968Z,21.81
2022-09-16T01:20:00.352Z,21.82
2022-09-16T01:23:02.749Z,21.66
2022-09-16T01:25:48.242Z,21.70
2022-09-16T01:28:53.115Z,21.80
2022-09-16T01:31:55.764Z,21.75
2022-09-16T01:34:36.253Z,21.68
2022-09-16T01:37:07.233Z,21.87
2022-09-16T01:39:48.723Z,21.93
2022-09-16T01:42:24.358Z,21.94
2022-09-16T01:45:18.097Z,21.97
2022-09-16T01:48:04.250Z,21.86
2022-09-16T01:50:40.159Z,21.98
2022-09-16T01:53:25.692Z,22.07
2022-09-16T01:56:15.614Z,22.14
2022-09-16T01:59:03.304Z,22.32
2022-09-16T02:01:47.981Z,22.31
2022-09-16T02:04:30.359Z,22.01
2022-09-16T02:07:01.370Z,22.18
2022-09-16T02:09:39.532Z,22.11
2022-09-16T02:12:16.828Z,22.10
2022-09-16T02:14:47.715Z,22.15
2022-09-16T02:17:23.559Z,22.10
2022-09-16T02:19:58.627Z,21.99
2022-09-16T02:22:32.586Z,21.96
2022-09-16T02:25:02.783Z,22.07
2022-09-16T02:27:32.144Z,21.84
2022-09-16T02:30:06.667Z,21.95
2022-09-16T02:32:37.798Z,21.96
2022-09-16T02:35:07.794Z,21.96
2022-09-16T02:37:46.400Z,21.91
2022-09-16T02:40:23.042Z,21.86
2022-09-16T02:42:50.643Z,21.85
2022-09-16T02:45:18.135Z,21.85
2022-09-16T02:47:48.186Z,21.77
2022-09-16T02:50:31.114Z,21.79
2022-09-16T02:53:07.589Z,21.73
2022-09-16T02:55:46.139Z,21.72
2022-09-16T02:58:13.576Z,21.83
2022-09-16T03:00:47.616Z,21.99
2022-09-16T03:03:15.466Z,22.00
2022-09-16T03:06:07.268Z,22.11
2022-09-16T03:08:36.549Z,22.07
2022-09-16T03:11:16.679Z,22.03
2022-09-16T03:13:55.358Z,22.07
2022-09-16T03:16:46.073Z,21.99
2022-09-16T03:19:16.649Z,22.18
2022-09-16T03:22:34.046Z,22.09
2022-09-16T03:25:11.185Z,22.00
2022-09-16T03:28:00.038Z,21.96
2022-09-16T03:30:30.805Z,22.04
2022-09-16T03:33:06.441Z,22.30
2022-09-16T03:35:33.704Z,22.19
2022-09-16T03:38:02.665Z,22.17
2022-09-16T03:40:33.084Z,21.97
2022-09-16T03:43:00.520Z,22.06
2022-09-16T03:45:27.798Z,22.01
2022-09-16T03:47:55.108Z,22.19
2022-09-16T03:50:22.735Z,22.09
2022-09-16T03:52:50.145Z,22.09
2022-09-16T03:55:17.587Z,22.07
2022-09-16T03:57:44.974Z,22.01
2022-09-16T04:00:16.312Z,21.89
2022-09-16T04:02:44.154Z,21.94
2022-09-16T04:05:11.812Z,21.99
2022-09-16T04:07:39.344Z,22.00
2022-09-16T04:10:07.509Z,21.93
2022-09-16T04:12:34.909Z,21.91
2022-09-16T04:15:16.436Z,21.95
2022-09-16T04:17:43.962Z,21.92
2022-09-16T04:20:11.287Z,21.96
2022-09-16T04:22:38.600Z,21.99
2022-09-16T04:25:06.395Z,22.08
2022-09-16T04:27:33.779Z,22.13
2022-09-16T04:30:01.180Z,22.03
2022-09-16T04:32:34.437Z,22.02
2022-09-16T04:35:01.741Z,22.11
2022-09-16T04:37:31.625Z,22.14
2022-09-16T04:40:07.319Z,22.15
2022-09-16T04:42:34.801Z,21.89
2022-09-16T04:45:02.219Z,22.10
2022-09-16T04:47:29.836Z,22.09
2022-09-16T04:49:57.324Z,22.01
2022-09-16T04:52:24.623Z,21.99
2022-09-16T04:54:51.911Z,22.03
2022-09-16T04:57:19.202Z,22.13
2022-09-16T04:59:46.611Z,22.14
2022-09-16T05:02:50.120Z,22.13
2022-09-16T05:05:17.657Z,22.22
2022-09-16T05:07:44.986Z,22.25
2022-09-16T05:10:12.608Z,22.23
2022-09-16T05:12:39.942Z,22.03
2022-09-16T05:15:08.023Z,22.26
2022-09-16T05:17:50.921Z,22.29
2022-09-16T05:20:19.039Z,22.45
2022-09-16T05:22:48.737Z,22.35
2022-09-16T05:25:16.168Z,22.48
2022-09-16T05:27:43.562Z,22.56
2022-09-16T05:30:11.584Z,22.63
2022-09-16T05:32:39.099Z,22.71
2022-09-16T05:35:18.338Z,22.92
2022-09-16T05:37:45.697Z,23.21
2022-09-16T05:40:13.066Z,23.26
2022-09-16T05:42:43.426Z,23.43
2022-09-16T05:45:10.990Z,23.47
2022-09-16T05:47:38.499Z,23.48
2022-09-16T05:50:06.383Z,23.44
2022-09-16T05:52:33.732Z,23.56
2022-09-16T05:55:01.042Z,23.42
2022-09-16T05:57:29.205Z,23.53
2022-09-16T06:00:06.755Z,23.75
2022-09-16T06:02:37.354Z,23.96
2022-09-16T06:05:05.005Z,23.91
2022-09-16T06:07:32.378Z,23.98
2022-09-16T06:09:59.958Z,23.93
2022-09-16T06:12:27.383Z,23.94
2022-09-16T06:14:54.710Z,24.06
2022-09-16T06:17:22.141Z,24.15
2022-09-16T06:19:49.483Z,24.28
2022-09-16T06:22:17.382Z,24.33
2022-09-16T06:24:49.504Z,24.43
2022-09-16T06:27:21.222Z,24.58
2022-09-16T06:29:48.838Z,24.78
2022-09-16T06:32:16.208Z,24.87
2022-09-16T06:34:43.527Z,24.96
2022-09-16T06:37:13.569Z,25.08
2022-09-16T06:39:40.848Z,25.23
2022-09-16T06:42:09.348Z,25.41
2022-09-16T06:44:41.638Z,25.54
2022-09-16T06:47:09.000Z,25.70
2022-09-16T06:49:36.483Z,26.06
2022-09-16T06:52:03.928Z,25.82
2022-09-16T06:54:32.128Z,26.00
2022-09-16T06:56:59.537Z,26.00
2022-09-16T06:59:26.782Z,25.96
2022-09-16T07:01:54.856Z,26.00
2022-09-16T07:04:25.039Z,26.32
2022-09-16T07:09:40.349Z,26.55
2022-09-16T07:12:08.573Z,26.83
2022-09-16T07:14:36.173Z,26.90
2022-09-16T07:17:03.784Z,26.99
2022-09-16T07:19:31.159Z,27.10
2022-09-16T07:21:58.594Z,26.91
2022-09-16T07:24:26.069Z,26.96
2022-09-16T07:26:53.379Z,26.80
2022-09-16T07:29:21.188Z,26.52
2022-09-16T07:31:48.475Z,26.56
2022-09-16T07:34:15.939Z,26.55
2022-09-16T07:36:49.078Z,26.69
2022-09-16T07:39:18.252Z,26.31
2022-09-16T07:41:48.765Z,26.21
2022-09-16T07:44:19.753Z,26.07
2022-09-16T07:46:48.579Z,26.23
2022-09-16T07:49:17.377Z,26.67
2022-09-16T07:51:45.091Z,26.29
2022-09-16T07:54:15.776Z,26.13
2022-09-16T07:56:44.384Z,26.17
2022-09-16T07:59:18.463Z,26.26
2022-09-16T08:01:46.938Z,26.55
2022-09-16T08:04:14.414Z,26.47
2022-09-16T08:06:42.053Z,26.49
2022-09-16T08:09:36.780Z,26.60
2022-09-16T08:11:57.123Z,26.05
2022-09-16T08:14:25.613Z,26.28
2022-09-16T08:16:53.018Z,26.29
2022-09-16T08:19:22.630Z,26.25
2022-09-16T08:21:50.353Z,26.48
2022-09-16T08:24:17.658Z,26.51
2022-09-16T08:26:45.085Z,26.87
2022-09-16T08:29:12.699Z,27.20
2022-09-16T08:31:40.408Z,27.20
2022-09-16T08:34:10.120Z,27.58
2022-09-16T08:36:38.896Z,27.72
2022-09-16T08:39:09.889Z,27.59
2022-09-16T08:42:02.048Z,28.00
2022-09-16T08:45:00.586Z,27.49
2022-09-16T08:47:57.930Z,27.24
2022-09-16T08:50:37.946Z,27.18
2022-09-16T08:53:13.107Z,27.77
2022-09-16T08:55:48.699Z,27.79
2022-09-16T08:58:46.966Z,28.42
2022-09-16T09:01:41.936Z,28.53
2022-09-16T09:04:09.591Z,28.58
2022-09-16T09:06:59.086Z,28.17
2022-09-16T09:09:41.681Z,29.29
2022-09-16T09:12:22.072Z,28.77
2022-09-16T09:15:32.821Z,29.02
2022-09-16T09:18:30.814Z,29.05
2022-09-16T09:20:58.080Z,28.87
2022-09-16T09:23:43.445Z,28.00
2022-09-16T09:26:25.922Z,28.02
2022-09-16T09:29:17.899Z,27.72
2022-09-16T09:31:51.218Z,27.83
2022-09-16T09:34:52.459Z,27.66
2022-09-16T09:37:58.055Z,27.70
2022-09-16T09:40:46.602Z,27.47
2022-09-16T09:43:53.705Z,27.83
2022-09-16T09:46:29.260Z,27.55
2022-09-16T09:49:39.408Z,27.84
2022-09-16T09:52:42.761Z,28.23
2022-09-16T09:55:20.400Z,27.78
2022-09-16T09:58:06.035Z,27.57
2022-09-16T10:00:33.440Z,27.40
2022-09-16T10:03:14.876Z,27.07
2022-09-16T10:05:42.374Z,27.01
2022-09-16T10:08:15.822Z,26.98
2022-09-16T10:10:50.856Z,26.56
2022-09-16T10:13:19.689Z,26.54
2022-09-16T10:15:51.970Z,26.27
2022-09-16T10:18:26.546Z,26.17
2022-09-16T10:21:13.145Z,26.50
2022-09-16T10:23:41.017Z,26.50
2022-09-16T10:26:20.395Z,26.54
2022-09-16T10:29:00.300Z,26.79
2022-09-16T10:31:37.290Z,27.27
2022-09-16T10:34:14.380Z,27.82
2022-09-16T10:36:41.746Z,28.74
2022-09-16T10:39:23.395Z,29.68
2022-09-16T10:41:50.845Z,30.14
2022-09-16T10:44:22.195Z,30.35
2022-09-16T10:46:53.898Z,29.85
2022-09-16T10:49:31.071Z,29.84
2022-09-16T10:52:09.435Z,29.25
2022-09-16T10:54:38.211Z,28.88
2022-09-16T10:57:20.261Z,28.79
2022-09-16T11:00:05.404Z,29.34
2022-09-16T11:03:03.765Z,29.26
2022-09-16T11:05:45.519Z,28.33
2022-09-16T11:08:18.820Z,28.54
2022-09-16T11:11:11.831Z,28.65
2022-09-16T11:13:42.230Z,27.98
2022-09-16T11:16:34.890Z,28.94
2022-09-16T11:19:25.381Z,28.71
2022-09-16T11:22:17.207Z,28.33
2022-09-16T11:25:03.394Z,28.39
2022-09-16T11:27:37.036Z,28.33
2022-09-16T11:30:14.641Z,27.75
2022-09-16T11:33:03.642Z,28.28
2022-09-16T11:36:01.460Z,29.43
2022-09-16T11:38:55.973Z,29.87
2022-09-16T11:41:59.894Z,29.00
2022-09-16T11:44:48.939Z,28.01
2022-09-16T11:47:40.486Z,28.39
2022-09-16T11:50:18.849Z,28.44
2022-09-16T11:53:05.999Z,28.29
2022-09-16T11:56:06.250Z,28.41
2022-09-16T11:58:49.264Z,28.18
2022-09-16T12:01:35.594Z,28.13
2022-09-16T12:04:19.880Z,29.13
2022-09-16T12:07:07.164Z,29.32
2022-09-16T12:09:40.905Z,29.37
2022-09-16T12:12:16.763Z,29.36
2022-09-16T12:14:53.846Z,30.10
2022-09-16T12:17:25.244Z,29.92
2022-09-16T12:19:59.830Z,30.47
2022-09-16T12:22:34.223Z,29.68
2022-09-16T12:25:09.765Z,28.18
2022-09-16T12:27:45.388Z,27.64
2022-09-16T12:30:20.176Z,27.55
2022-09-16T12:33:22.557Z,27.47
2022-09-16T12:36:13.029Z,27.20
2022-09-16T12:38:41.025Z,27.44
2022-09-16T12:41:13.552Z,27.60
2022-09-16T12:43:50.123Z,27.74
2022-09-16T12:46:49.747Z,27.73
2022-09-16T12:49:54.946Z,27.51
2022-09-16T12:52:40.028Z,27.85
2022-09-16T12:55:31.812Z,27.86
2022-09-16T12:58:13.696Z,27.87
2022-09-16T13:00:56.535Z,28.24
2022-09-16T13:03:28.114Z,28.41
2022-09-16T13:05:59.073Z,28.59
2022-09-16T13:08:32.968Z,28.71
2022-09-16T13:12:16.152Z,28.74
2022-09-16T13:13:56.747Z,28.10
2022-09-16T13:16:37.282Z,28.30
2022-09-16T13:19:34.472Z,28.74
2022-09-16T13:22:17.148Z,28.99
2022-09-16T13:24:53.600Z,28.99
2022-09-16T13:27:26.107Z,28.80
2022-09-16T13:30:19.283Z,28.68
2022-09-16T13:33:16.723Z,28.90
2022-09-16T13:36:11.459Z,28.73
2022-09-16T13:38:47.924Z,28.43
2022-09-16T13:41:28.364Z,28.27
2022-09-16T13:43:55.895Z,28.11
2022-09-16T13:46:29.824Z,27.74
2022-09-16T13:49:12.224Z,27.76
2022-09-16T13:51:49.242Z,27.81
2022-09-16T13:54:28.724Z,27.83
2022-09-16T13:57:17.232Z,28.16
2022-09-16T13:59:47.565Z,28.51
2022-09-16T14:02:31.242Z,28.22
2022-09-16T14:05:43.259Z,27.76
2022-09-16T14:08:12.210Z,27.75
2022-09-16T14:11:04.514Z,28.00
2022-09-16T14:14:06.134Z,28.09
2022-09-16T14:16:43.028Z,28.14
2022-09-16T14:19:28.400Z,28.14
2022-09-16T14:22:06.660Z,28.17
2022-09-16T14:24:36.994Z,29.09
2022-09-16T14:27:06.127Z,29.45
2022-09-16T14:29:38.829Z,29.88
2022-09-16T14:32:14.498Z,30.14
2022-09-16T14:34:41.945Z,30.45
2022-09-16T14:37:17.031Z,30.69
2022-09-16T14:39:50.891Z,30.01
2022-09-16T14:42:27.196Z,29.89
2022-09-16T14:44:56.890Z,29.49
2022-09-16T14:50:52.685Z,29.91
2022-09-16T14:53:36.392Z,30.05
2022-09-16T14:56:09.051Z,30.57
2022-09-16T14:58:39.011Z,30.81
2022-09-16T15:01:12.363Z,31.08
2022-09-16T15:04:04.411Z,30.67
2022-09-16T15:06:37.536Z,30.70
2022-09-16T15:09:19.943Z,30.21
2022-09-16T15:11:53.062Z,29.67
2022-09-16T15:14:23.777Z,29.97
2022-09-16T15:16:55.837Z,29.08
2022-09-16T15:19:45.106Z,29.58
2022-09-16T15:22:15.571Z,29.46
2022-09-16T15:24:44.265Z,28.89
2022-09-16T15:27:11.654Z,29.66
2022-09-16T15:32:44.450Z,29.88
2022-09-16T15:35:26.196Z,29.41
2022-09-16T15:37:54.838Z,29.40
2022-09-16T15:40:26.645Z,29.10
2022-09-16T15:43:22.107Z,28.63
2022-09-16T15:46:16.465Z,28.43
2022-09-16T15:48:56.232Z,28.17
2022-09-16T15:51:36.661Z,28.06
2022-09-16T15:54:22.990Z,27.77
2022-09-16T15:57:22.717Z,27.79
2022-09-16T15:59:55.266Z,27.56
2022-09-16T16:02:35.303Z,27.31
2022-09-16T16:05:13.312Z,27.30
2022-09-16T16:07:54.198Z,27.18
2022-09-16T16:10:27.042Z,26.90
2022-09-16T16:13:00.552Z,27.01
2022-09-16T16:15:41.073Z,26.96
2022-09-16T16:18:12.178Z,26.92
2022-09-16T16:22:21.780Z,26.80
2022-09-16T16:23:38.162Z,26.80
2022-09-16T16:26:10.609Z,26.83
2022-09-16T16:28:40.520Z,26.77
2022-09-16T16:31:13.915Z,26.72
2022-09-16T16:33:55.301Z,26.41
2022-09-16T16:36:23.023Z,26.71
2022-09-16T16:38:51.675Z,26.60
2022-09-16T16:41:24.055Z,26.64
2022-09-16T16:43:52.029Z,26.71
2022-09-16T16:46:19.545Z,26.56
2022-09-16T16:48:47.754Z,26.49
2022-09-16T16:51:15.094Z,26.28
2022-09-16T16:53:42.465Z,26.45
2022-09-16T16:56:15.210Z,26.45
2022-09-16T16:58:46.078Z,26.47
2022-09-16T17:01:16.573Z,26.38
2022-09-16T17:03:46.546Z,26.40
2022-09-16T17:06:14.352Z,26.29
2022-09-16T17:08:41.993Z,26.15
2022-09-16T17:11:14.975Z,26.14
2022-09-16T17:13:45.633Z,25.95
2022-09-16T17:16:16.223Z,25.51
2022-09-16T17:18:44.152Z,24.85
2022-09-16T17:21:17.464Z,25.06
2022-09-16T17:23:45.574Z,24.95
2022-09-16T17:26:14.174Z,24.96
2022-09-16T17:28:44.103Z,24.88
2022-09-16T17:31:15.287Z,24.78
2022-09-16T17:33:43.953Z,25.08
2022-09-16T17:36:13.836Z,25.12
2022-09-16T17:38:41.624Z,25.30
2022-09-16T17:41:14.332Z,25.29
2022-09-16T17:43:42.977Z,25.24
2022-09-16T17:46:16.219Z,25.20
2022-09-16T17:48:44.151Z,25.19
2022-09-16T17:51:14.749Z,25.19
2022-09-16T17:53:42.055Z,25.18
2022-09-16T17:56:13.587Z,25.16
2022-09-16T17:58:44.767Z,25.22
2022-09-16T18:01:16.799Z,25.19
2022-09-16T18:03:46.512Z,25.21
2022-09-16T18:06:17.403Z,24.91
2022-09-16T18:08:45.680Z,25.10
2022-09-16T18:11:15.152Z,25.05
2022-09-16T18:13:43.066Z,25.04
2022-09-16T18:16:17.077Z,25.04
2022-09-16T18:18:45.811Z,25.04
2022-09-16T18:21:15.534Z,24.95
2022-09-16T18:23:48.901Z,24.86
2022-09-16T18:26:17.431Z,24.59
2022-09-16T18:29:08.516Z,24.63
2022-09-16T18:31:35.178Z,24.63
2022-09-16T18:34:02.493Z,24.54
2022-09-16T18:36:30.515Z,24.37
2022-09-16T18:38:59.519Z,24.37
2022-09-16T18:41:30.258Z,24.34
2022-09-16T18:44:05.377Z,24.43
2022-09-16T18:46:38.048Z,24.46
2022-09-16T18:49:06.507Z,24.25
2022-09-16T18:51:36.641Z,24.26
2022-09-16T18:54:16.407Z,24.25
2022-09-16T18:56:43.938Z,24.07
2022-09-16T18:59:22.642Z,24.04
2022-09-16T19:01:56.846Z,24.05
2022-09-16T19:04:30.439Z,24.13
2022-09-16T19:07:06.258Z,24.00
2022-09-16T19:09:36.520Z,23.96
2022-09-16T19:12:05.572Z,23.94
2022-09-16T19:14:33.010Z,23.83
2022-09-16T19:17:07.799Z,23.88
2022-09-16T19:19:35.554Z,23.77
2022-09-16T19:22:06.181Z,23.81
2022-09-16T19:24:34.411Z,23.80
2022-09-16T19:27:01.882Z,23.52
2022-09-16T19:29:29.230Z,23.64
2022-09-16T19:31:57.711Z,23.67
2022-09-16T19:34:25.051Z,23.61
2022-09-16T19:36:52.775Z,23.61
2022-09-16T19:39:21.441Z,23.52
2022-09-16T19:41:48.983Z,23.52
2022-09-16T19:44:17.908Z,23.65
2022-09-16T19:46:49.615Z,23.70
2022-09-16T19:49:21.086Z,23.72
2022-09-16T19:51:49.588Z,23.72
2022-09-16T19:54:17.273Z,23.64
2022-09-16T19:56:49.486Z,23.58
2022-09-16T19:59:18.179Z,23.52
2022-09-16T20:01:45.531Z,23.57
2022-09-16T20:04:13.050Z,23.60
2022-09-16T20:06:42.271Z,23.44
2022-09-16T20:09:12.535Z,23.54
2022-09-16T20:11:43.909Z,23.56
2022-09-16T20:14:19.190Z,23.50
2022-09-16T20:16:47.003Z,23.51
2022-09-16T20:19:16.429Z,23.57
2022-09-16T20:21:44.733Z,23.54
2022-09-16T20:24:22.029Z,23.34
2022-09-16T20:26:51.653Z,23.34
2022-09-16T20:29:20.363Z,23.23
2022-09-16T20:31:49.435Z,23.22
2022-09-16T20:34:17.256Z,23.14
2022-09-16T20:36:46.146Z,23.15
2022-09-16T20:39:14.801Z,22.88
2022-09-16T20:41:45.841Z,22.61
2022-09-16T20:44:14.977Z,22.70
2022-09-16T20:46:42.433Z,22.70
2022-09-16T20:49:16.084Z,22.74
2022-09-16T20:51:43.918Z,22.73
2022-09-16T20:54:14.060Z,22.59
2022-09-16T20:56:43.724Z,22.63
2022-09-16T20:59:15.229Z,22.58
2022-09-16T21:01:42.832Z,22.52
2022-09-16T21:04:15.767Z,22.64
2022-09-16T21:06:43.432Z,22.68
2022-09-16T21:09:13.544Z,22.66
2022-09-16T21:11:44.926Z,22.75
2022-09-16T21:14:15.509Z,22.62
2022-09-16T21:16:44.023Z,22.63
2022-09-16T21:19:13.771Z,22.72
2022-09-16T21:21:44.591Z,22.83
2022-09-16T21:24:13.386Z,22.87
2022-09-16T21:26:41.679Z,23.03
2022-09-16T21:29:11.826Z,23.25
2022-09-16T21:31:41.452Z,23.09
2022-09-16T21:34:17.106Z,23.04
2022-09-16T21:36:45.274Z,22.98
2022-09-16T21:39:17.601Z,22.94
2022-09-16T21:41:46.330Z,22.91
2022-09-16T21:44:21.268Z,23.09
2022-09-16T21:46:51.109Z,23.08
2022-09-16T21:49:30.520Z,23.26
2022-09-16T21:51:59.008Z,23.37
2022-09-16T21:54:28.286Z,23.22
2022-09-16T21:56:55.736Z,23.22
2022-09-16T21:59:23.213Z,23.25
2022-09-16T22:01:51.879Z,23.25
2022-09-16T22:04:22.056Z,23.40
2022-09-16T22:06:51.092Z,23.27
2022-09-16T22:09:18.868Z,23.09
2022-09-16T22:11:46.418Z,22.90
2022-09-16T22:14:14.216Z,22.96
2022-09-16T22:16:41.744Z,22.92
2022-09-16T22:19:14.872Z,22.99
2022-09-16T22:21:45.348Z,22.74
2022-09-16T22:24:13.928Z,22.76
2022-09-16T22:26:41.722Z,22.84
2022-09-16T22:29:10.816Z,22.88
2022-09-16T22:31:41.587Z,22.97
2022-09-16T22:34:09.663Z,23.08
2022-09-16T22:36:37.980Z,23.14
2022-09-16T22:39:11.531Z,22.93
2022-09-16T22:41:39.204Z,23.02
2022-09-16T22:44:07.074Z,22.90
2022-09-16T22:46:39.349Z,22.86
2022-09-16T22:49:06.737Z,22.80
2022-09-16T22:51:34.182Z,22.95
2022-09-16T22:54:05.304Z,22.92
2022-09-16T22:56:33.814Z,22.95
2022-09-16T22:59:03.246Z,22.99
2022-09-16T23:01:37.700Z,22.99
2022-09-16T23:04:06.768Z,22.84
2022-09-16T23:06:34.974Z,22.97
2022-09-16T23:09:02.907Z,22.88
2022-09-16T23:11:33.397Z,22.80
2022-09-16T23:14:01.576Z,22.80
2022-09-16T23:16:32.019Z,22.71
2022-09-16T23:19:03.572Z,22.59
2022-09-16T23:21:35.824Z,22.55
2022-09-16T23:24:07.118Z,22.72
2022-09-16T23:26:37.500Z,22.66
2022-09-16T23:29:08.506Z,22.56
2022-09-16T23:31:40.545Z,22.74
2022-09-16T23:34:19.956Z,22.62
2022-09-16T23:36:48.402Z,22.59
2022-09-16T23:39:17.073Z,22.74
2022-09-16T23:41:45.358Z,22.71
2022-09-16T23:44:14.590Z,22.70
2022-09-16T23:46:42.214Z,22.66
2022-09-16T23:49:10.447Z,22.59
2022-09-16T23:51:37.811Z,22.57
2022-09-16T23:54:05.521Z,22.36
2022-09-16T23:56:33.029Z,22.44
2022-09-16T23:59:01.076Z,22.59
